< Cyclone 199808 1998 Season Cyclone 199901 >
Cyclone 199809 (NATHAN)
General InformationTrack Information on Google MapsDetailed Wind InformationList of All Images || ResourceGoogle EarthGE AnimationAtom FeedGeoJSON
Detalied Best Track (Time Zone = UTC)
Year Month Day Hour Lat. Long. Pressure (hPa) Wind (kt) Class Image Chart
1998 3 20 18 -11.1 143.4 1000 41 3 Image --
1998 3 21 00 -11.1 143.7 995 41 3 Image --
1998 3 21 06 -11.2 143.9 990 51 4 Image --
1998 3 21 12 -11.2 144.2 990 51 4 Image --
1998 3 21 18 -11.2 144.4 990 51 4 Image --
1998 3 22 00 -11.3 144.6 990 51 4 Image --
1998 3 22 06 -11.7 144.9 990 51 4 Image --
1998 3 22 12 -12.4 145.1 995 45 3 Image --
1998 3 22 18 -12.9 145.3 995 45 3 Image --
1998 3 23 00 -13.4 145.7 995 45 3 Image --
1998 3 23 06 -13.8 145.8 995 45 3 Image --
1998 3 23 12 -14.1 146.1 995 45 3 Image --
1998 3 23 18 -14.1 146.4 995 45 3 Image --
1998 3 24 00 -13.9 147.1 990 51 4 Image --
1998 3 24 06 -13.7 147.9 990 51 4 Image --
1998 3 24 12 -13.4 148.6 990 51 4 Image --
1998 3 24 18 -13.2 149.8 990 51 4 Image --
1998 3 25 00 -12.9 151.6 990 51 4 Image --
1998 3 25 06 -12.8 153.4 995 45 3 Image --
1998 3 25 12 -12.7 154.9 995 45 3 Image --
1998 3 25 18 -12.9 155.9 995 45 3 Image --
1998 3 26 00 -13.1 156.7 995 45 3 Image --
1998 3 26 06 -13.6 157.5 995 45 3 Image --
1998 3 26 12 -14.0 158.1 995 45 3 Image --
1998 3 26 18 -14.5 158.4 995 45 3 Image --
< Cyclone 199808 1998 Season Cyclone 199901 >

Help